LFBD

Bordeaux/Merignac

Airport
ICAO code
LFBD
Summary
ICAO Region
EUR
ICAO Territory
Location

Bordeaux/Merignac, Aquitaine,

Coordinates
44° 49' 42" N , 0° 42' 56" W
KCC
Metar
Observation
LFBD 012300Z AUTO 03003KT 9999 OVC043 06/04 Q1021 BECMG 3000 BR
Station
Bordeaux / Merignac
Date/Time
2022-12-01 23:00:00
Wind direction
30°
Wind speed
03 kts
Lowest cloud amount
overcast
Temperature
6°C
Dew point
4°C
Humidity
86%
QNH
1021 hPa
Weather condition
n/a

Description

International airport serving city of Bordeaux.

Climatology

Temperate Marine climate/Oceanic climate (Köppen climate classification Cfb). Moderately cool summer and comparatively warm winter with a temperature range of only 14°C. Prevailing south-westerly winds from the Atlantic Ocean.

Runways

Designator Length Width Surface Rops
11/29 2415 45 ASP Yes/Yes
5/23 3100 45 ASP Yes/Yes

Airport map

Aerial View

SKYbrary Partners:

Safety knowledge contributed by: